createdAt,value
2018-09-15T00:01:47.765Z,12.67
2018-09-15T00:04:16.316Z,12.65
2018-09-15T00:06:44.875Z,12.72
2018-09-15T00:09:13.426Z,12.73
2018-09-15T00:11:42.053Z,12.73
2018-09-15T00:14:10.578Z,12.74
2018-09-15T00:16:39.104Z,12.77
2018-09-15T00:19:07.697Z,12.72
2018-09-15T00:21:36.255Z,12.70
2018-09-15T00:24:04.790Z,12.69
2018-09-15T00:26:33.432Z,12.68
2018-09-15T00:29:03.076Z,12.60
2018-09-15T00:31:31.747Z,12.52
2018-09-15T00:34:00.248Z,12.45
2018-09-15T00:36:28.732Z,12.32
2018-09-15T00:38:57.330Z,12.22
2018-09-15T00:41:26.910Z,12.21
2018-09-15T00:43:55.436Z,12.11
2018-09-15T00:46:24.054Z,12.11
2018-09-15T00:48:52.601Z,12.07
2018-09-15T00:51:21.140Z,12.00
2018-09-15T00:53:53.065Z,11.95
2018-09-15T00:56:21.545Z,11.86
2018-09-15T00:58:56.035Z,11.78
2018-09-15T01:01:24.600Z,11.61
2018-09-15T01:03:54.242Z,11.55
2018-09-15T01:06:22.793Z,11.49
2018-09-15T01:08:51.324Z,11.48
2018-09-15T01:11:22.282Z,11.44
2018-09-15T01:13:51.237Z,11.45
2018-09-15T01:16:19.993Z,11.41
2018-09-15T01:18:48.995Z,11.35
2018-09-15T01:21:17.753Z,11.33
2018-09-15T01:23:46.388Z,11.39
2018-09-15T01:26:15.041Z,11.49
2018-09-15T01:28:43.592Z,11.58
2018-09-15T01:34:25.583Z,11.51
2018-09-15T01:36:54.119Z,11.51
2018-09-15T01:39:22.624Z,11.54
2018-09-15T01:41:51.152Z,11.68
2018-09-15T01:44:19.705Z,11.85
2018-09-15T01:46:48.209Z,12.03
2018-09-15T01:49:16.707Z,12.18
2018-09-15T01:51:45.191Z,12.24
2018-09-15T01:54:13.692Z,12.29
2018-09-15T01:56:42.215Z,12.36
2018-09-15T01:59:10.704Z,12.39
2018-09-15T02:01:39.188Z,12.43
2018-09-15T02:04:08.349Z,12.44
2018-09-15T02:06:36.899Z,12.48
2018-09-15T02:09:08.852Z,12.50
2018-09-15T02:11:37.324Z,12.51
2018-09-15T02:14:06.224Z,12.54
2018-09-15T02:16:34.737Z,12.54
2018-09-15T02:21:53.659Z,12.57
2018-09-15T02:24:22.124Z,12.60
2018-09-15T02:26:50.593Z,12.61
2018-09-15T02:29:19.089Z,12.64
2018-09-15T02:31:47.556Z,12.65
2018-09-15T02:34:16.288Z,12.66
2018-09-15T02:36:44.732Z,12.64
2018-09-15T02:39:13.548Z,12.66
2018-09-15T02:41:42.030Z,12.66
2018-09-15T02:44:10.517Z,12.65
2018-09-15T02:46:38.975Z,12.60
2018-09-15T02:49:07.443Z,12.57
2018-09-15T02:51:35.924Z,12.52
2018-09-15T02:54:04.396Z,12.52
2018-09-15T02:56:32.981Z,12.47
2018-09-15T02:59:01.461Z,12.46
2018-09-15T03:01:29.912Z,12.39
2018-09-15T03:03:58.393Z,12.44
2018-09-15T03:06:26.838Z,12.41
2018-09-15T03:08:55.302Z,12.39
2018-09-15T03:11:23.801Z,12.36
2018-09-15T03:13:52.326Z,12.30
2018-09-15T03:16:20.808Z,12.26
2018-09-15T03:18:49.328Z,12.22
2018-09-15T03:21:18.045Z,12.19
2018-09-15T03:23:46.536Z,12.15
2018-09-15T03:26:15.021Z,12.13
2018-09-15T03:28:43.548Z,12.07
2018-09-15T03:31:12.164Z,12.04
2018-09-15T03:33:40.651Z,12.01
2018-09-15T03:36:09.175Z,11.98
2018-09-15T03:38:37.716Z,11.94
2018-09-15T03:41:06.240Z,11.92
2018-09-15T03:43:34.724Z,11.91
2018-09-15T03:46:03.197Z,11.89
2018-09-15T03:48:31.778Z,11.86
2018-09-15T03:51:00.280Z,11.85
2018-09-15T03:53:28.765Z,11.84
2018-09-15T03:55:57.376Z,11.82
2018-09-15T03:58:25.966Z,11.78
2018-09-15T04:00:54.435Z,11.73
2018-09-15T04:03:23.623Z,11.72
2018-09-15T04:05:52.142Z,11.70
2018-09-15T04:08:21.064Z,11.69
2018-09-15T04:10:49.851Z,11.69
2018-09-15T04:13:18.393Z,11.66
2018-09-15T04:15:46.889Z,11.64
2018-09-15T04:18:16.670Z,11.63
2018-09-15T04:20:47.148Z,11.58
2018-09-15T04:23:16.490Z,11.53
2018-09-15T04:25:45.556Z,11.51
2018-09-15T04:28:14.163Z,11.49
2018-09-15T04:30:42.928Z,11.49
2018-09-15T04:33:11.399Z,11.49
2018-09-15T04:35:40.319Z,11.45
2018-09-15T04:38:08.813Z,11.40
2018-09-15T04:40:37.395Z,11.33
2018-09-15T04:43:05.884Z,11.27
2018-09-15T04:45:34.351Z,11.24
2018-09-15T04:48:02.838Z,11.22
2018-09-15T04:50:31.427Z,11.22
2018-09-15T04:53:00.009Z,11.20
2018-09-15T04:55:28.491Z,11.17
2018-09-15T04:57:56.936Z,11.15
2018-09-15T05:00:25.437Z,11.16
2018-09-15T05:02:53.947Z,11.20
2018-09-15T05:05:22.446Z,11.24
2018-09-15T05:07:50.925Z,11.29
2018-09-15T05:10:19.388Z,11.33
2018-09-15T05:12:47.922Z,11.39
2018-09-15T05:15:16.354Z,11.46
2018-09-15T05:17:44.881Z,11.52
2018-09-15T05:20:13.334Z,11.56
2018-09-15T05:22:41.916Z,11.58
2018-09-15T05:25:10.413Z,11.63
2018-09-15T05:27:39.164Z,11.67
2018-09-15T05:30:08.555Z,11.74
2018-09-15T05:32:37.149Z,11.75
2018-09-15T05:35:05.663Z,11.82
2018-09-15T05:37:34.252Z,11.81
2018-09-15T05:40:02.796Z,11.86
2018-09-15T05:42:31.397Z,11.89
2018-09-15T05:44:59.927Z,11.96
2018-09-15T05:47:28.495Z,12.02
2018-09-15T05:49:56.939Z,12.05
2018-09-15T05:52:25.426Z,12.08
2018-09-15T05:54:54.129Z,12.12
2018-09-15T05:57:22.842Z,12.16
2018-09-15T05:59:51.360Z,12.20
2018-09-15T06:02:19.836Z,12.24
2018-09-15T06:04:48.323Z,12.29
2018-09-15T06:07:17.350Z,12.31
2018-09-15T06:09:47.045Z,12.35
2018-09-15T06:12:15.737Z,12.43
2018-09-15T06:14:44.549Z,12.47
2018-09-15T06:17:13.056Z,12.46
2018-09-15T06:19:41.578Z,12.49
2018-09-15T06:22:10.364Z,12.52
2018-09-15T06:24:38.863Z,12.55
2018-09-15T06:27:07.386Z,12.58
2018-09-15T06:29:36.455Z,12.60
2018-09-15T06:32:05.175Z,12.60
2018-09-15T06:34:33.944Z,12.64
2018-09-15T06:37:02.486Z,12.69
2018-09-15T06:39:31.418Z,12.74
2018-09-15T06:42:00.700Z,12.78
2018-09-15T06:44:29.248Z,12.83
2018-09-15T06:46:57.777Z,12.86
2018-09-15T06:49:26.358Z,12.88
2018-09-15T06:51:54.948Z,12.90
2018-09-15T06:54:23.430Z,12.97
2018-09-15T06:56:51.962Z,13.01
2018-09-15T06:59:21.592Z,13.05
2018-09-15T07:01:50.804Z,13.09
2018-09-15T07:04:21.504Z,13.13
2018-09-15T07:06:52.577Z,13.18
2018-09-15T07:09:21.204Z,13.22
2018-09-15T07:11:49.853Z,13.29
2018-09-15T07:14:18.907Z,13.33
2018-09-15T07:16:49.555Z,13.46
2018-09-15T07:19:18.068Z,13.63
2018-09-15T07:21:47.005Z,13.83
2018-09-15T07:24:15.861Z,14.02
2018-09-15T07:26:44.659Z,14.26
2018-09-15T07:29:13.417Z,14.35
2018-09-15T07:31:42.180Z,14.44
2018-09-15T07:34:11.486Z,14.57
2018-09-15T07:36:40.184Z,14.57
2018-09-15T07:39:11.150Z,14.59
2018-09-15T07:41:40.016Z,14.61
2018-09-15T07:44:08.625Z,14.63
2018-09-15T07:46:38.064Z,14.65
2018-09-15T07:49:06.901Z,14.61
2018-09-15T07:51:35.688Z,14.68
2018-09-15T07:57:22.909Z,14.82
2018-09-15T08:02:32.912Z,14.95
2018-09-15T08:05:01.455Z,14.93
2018-09-15T08:07:29.985Z,15.00
2018-09-15T08:09:58.492Z,15.19
2018-09-15T08:12:27.012Z,15.29
2018-09-15T08:14:55.585Z,15.49
2018-09-15T08:17:24.089Z,15.55
2018-09-15T08:19:52.601Z,15.49
2018-09-15T08:22:21.177Z,15.61
2018-09-15T08:24:49.735Z,15.67
2018-09-15T08:27:18.229Z,15.73
2018-09-15T08:29:46.761Z,15.79
2018-09-15T08:32:15.288Z,15.99
2018-09-15T08:34:43.864Z,16.36
2018-09-15T08:37:12.418Z,16.50
2018-09-15T08:39:40.969Z,16.62
2018-09-15T08:42:09.520Z,16.66
2018-09-15T08:44:38.052Z,16.58
2018-09-15T08:47:07.261Z,16.54
2018-09-15T08:49:35.808Z,16.59
2018-09-15T08:52:05.517Z,16.47
2018-09-15T08:54:34.064Z,16.50
2018-09-15T08:57:02.596Z,16.50
2018-09-15T08:59:31.210Z,16.50
2018-09-15T09:01:59.834Z,16.60
2018-09-15T09:04:28.393Z,16.66
2018-09-15T09:06:56.925Z,16.68
2018-09-15T09:09:25.449Z,16.68
2018-09-15T09:14:32.911Z,16.89
2018-09-15T09:17:04.149Z,17.01
2018-09-15T09:19:36.570Z,17.12
2018-09-15T09:22:05.359Z,17.00
2018-09-15T09:24:34.933Z,17.07
2018-09-15T09:27:07.113Z,16.89
2018-09-15T09:29:36.244Z,16.75
2018-09-15T09:32:05.481Z,16.65
2018-09-15T09:37:20.597Z,16.55
2018-09-15T09:39:57.060Z,16.36
2018-09-15T09:42:26.769Z,16.42
2018-09-15T09:44:56.744Z,16.37
2018-09-15T09:47:27.178Z,16.41
2018-09-15T09:49:59.990Z,16.46
2018-09-15T09:52:28.864Z,16.56
2018-09-15T09:54:57.682Z,16.53
2018-09-15T10:00:09.020Z,16.51
2018-09-15T10:02:37.604Z,16.69
2018-09-15T10:05:06.334Z,16.79
2018-09-15T10:07:34.853Z,16.88
2018-09-15T10:10:03.390Z,16.91
2018-09-15T10:12:31.866Z,16.87
2018-09-15T10:15:00.385Z,16.91
2018-09-15T10:17:29.222Z,17.00
2018-09-15T10:19:57.726Z,16.96
2018-09-15T10:22:26.229Z,17.14
2018-09-15T10:24:54.828Z,17.23
2018-09-15T10:27:23.344Z,17.19
2018-09-15T10:29:51.949Z,17.40
2018-09-15T10:32:20.489Z,17.48
2018-09-15T10:34:49.121Z,17.60
2018-09-15T10:37:17.688Z,17.57
2018-09-15T10:39:46.172Z,17.51
2018-09-15T10:42:14.670Z,17.53
2018-09-15T10:44:43.212Z,17.50
2018-09-15T10:47:11.710Z,17.52
2018-09-15T10:49:40.219Z,17.84
2018-09-15T10:52:08.713Z,18.15
2018-09-15T10:54:37.221Z,18.43
2018-09-15T10:57:06.136Z,18.90
2018-09-15T10:59:34.630Z,19.03
2018-09-15T11:02:03.144Z,18.64
2018-09-15T11:04:31.972Z,18.61
2018-09-15T11:07:00.650Z,18.55
2018-09-15T11:09:29.232Z,18.62
2018-09-15T11:11:59.567Z,18.72
2018-09-15T11:14:28.768Z,18.53
2018-09-15T11:16:57.320Z,18.34
2018-09-15T11:19:26.048Z,18.15
2018-09-15T11:21:54.542Z,17.94
2018-09-15T11:24:23.095Z,17.96
2018-09-15T11:26:51.633Z,18.07
2018-09-15T11:29:20.558Z,18.09
2018-09-15T11:31:49.598Z,18.13
2018-09-15T11:34:18.264Z,18.26
2018-09-15T11:36:46.797Z,18.38
2018-09-15T11:39:15.521Z,18.44
2018-09-15T11:41:44.309Z,18.31
2018-09-15T11:44:14.876Z,18.26
2018-09-15T11:46:44.976Z,18.28
2018-09-15T11:49:13.794Z,18.13
2018-09-15T11:51:42.340Z,18.13
2018-09-15T11:54:11.063Z,18.15
2018-09-15T11:56:40.180Z,18.23
2018-09-15T11:59:09.276Z,18.30
2018-09-15T12:01:43.842Z,18.44
2018-09-15T12:04:13.473Z,18.84
2018-09-15T12:06:42.190Z,19.13
2018-09-15T12:09:10.896Z,19.25
2018-09-15T12:11:41.509Z,19.38
2018-09-15T12:14:10.189Z,19.73
2018-09-15T12:16:38.918Z,20.19
2018-09-15T12:19:09.208Z,20.21
2018-09-15T12:21:37.752Z,20.41
2018-09-15T12:24:06.240Z,20.45
2018-09-15T12:26:34.799Z,20.05
2018-09-15T12:29:03.385Z,19.71
2018-09-15T12:31:39.212Z,19.33
2018-09-15T12:34:08.115Z,18.94
2018-09-15T12:36:40.961Z,18.77
2018-09-15T12:39:10.384Z,18.78
2018-09-15T12:41:39.218Z,18.79
2018-09-15T12:44:16.455Z,18.89
2018-09-15T12:46:48.447Z,18.97
2018-09-15T12:49:17.350Z,18.87
2018-09-15T12:51:45.893Z,18.87
2018-09-15T12:54:14.445Z,19.22
2018-09-15T12:56:43.217Z,19.47
2018-09-15T12:59:12.390Z,19.43
2018-09-15T13:01:40.993Z,19.40
2018-09-15T13:04:09.556Z,19.27
2018-09-15T13:06:38.124Z,19.21
2018-09-15T13:09:09.612Z,19.09
2018-09-15T13:11:40.636Z,19.27
2018-09-15T13:14:09.363Z,19.42
2018-09-15T13:16:38.401Z,19.18
2018-09-15T13:19:06.929Z,19.00
2018-09-15T13:21:35.480Z,18.80
2018-09-15T13:24:03.972Z,18.57
2018-09-15T13:26:32.657Z,18.28
2018-09-15T13:29:01.166Z,18.13
2018-09-15T13:31:29.831Z,17.81
2018-09-15T13:33:58.320Z,17.40
2018-09-15T13:36:27.296Z,17.15
2018-09-15T13:38:55.882Z,17.06
2018-09-15T13:41:28.287Z,17.11
2018-09-15T13:43:56.837Z,17.69
2018-09-15T13:46:25.457Z,17.93
2018-09-15T13:48:55.189Z,18.01
2018-09-15T13:51:23.843Z,17.88
2018-09-15T13:53:52.898Z,17.78
2018-09-15T13:56:21.472Z,17.95
2018-09-15T13:58:50.097Z,18.32
2018-09-15T14:01:18.658Z,18.67
2018-09-15T14:03:47.201Z,18.59
2018-09-15T14:06:16.448Z,18.63
2018-09-15T14:08:44.941Z,18.79
2018-09-15T14:11:13.900Z,19.04
2018-09-15T14:13:42.482Z,19.04
2018-09-15T14:16:13.880Z,18.79
2018-09-15T14:18:42.527Z,18.59
2018-09-15T14:21:11.075Z,18.54
2018-09-15T14:23:39.637Z,18.61
2018-09-15T14:26:08.211Z,18.56
2018-09-15T14:28:36.793Z,18.55
2018-09-15T14:31:05.360Z,18.40
2018-09-15T14:33:33.911Z,18.56
2018-09-15T14:36:02.517Z,18.65
2018-09-15T14:38:31.012Z,18.71
2018-09-15T14:40:59.544Z,18.79
2018-09-15T14:43:28.059Z,18.60
2018-09-15T14:45:56.946Z,18.57
2018-09-15T14:48:25.588Z,18.58
2018-09-15T14:50:54.092Z,18.54
2018-09-15T14:53:23.747Z,18.48
2018-09-15T14:55:52.304Z,18.34
2018-09-15T14:58:20.920Z,18.21
2018-09-15T15:00:49.490Z,18.08
2018-09-15T15:03:18.107Z,18.08
2018-09-15T15:05:46.712Z,17.97
2018-09-15T15:08:15.304Z,17.89
2018-09-15T15:10:45.925Z,17.83
2018-09-15T15:13:14.496Z,17.79
2018-09-15T15:15:43.040Z,17.80
2018-09-15T15:18:13.669Z,17.82
2018-09-15T15:20:42.516Z,17.87
2018-09-15T15:23:11.138Z,17.88
2018-09-15T15:25:39.721Z,18.00
2018-09-15T15:28:08.304Z,18.10
2018-09-15T15:30:37.096Z,18.05
2018-09-15T15:33:05.750Z,18.04
2018-09-15T15:35:34.439Z,17.92
2018-09-15T15:38:02.872Z,17.93
2018-09-15T15:40:31.580Z,17.94
2018-09-15T15:43:00.139Z,17.81
2018-09-15T15:45:28.707Z,17.81
2018-09-15T15:47:57.255Z,17.85
2018-09-15T15:50:25.770Z,17.80
2018-09-15T15:52:54.577Z,17.78
2018-09-15T15:55:23.090Z,17.74
2018-09-15T15:57:51.591Z,17.83
2018-09-15T16:00:21.249Z,17.88
2018-09-15T16:05:43.209Z,18.10
2018-09-15T16:08:15.247Z,18.11
2018-09-15T16:12:25.015Z,18.11
2018-09-15T16:14:53.602Z,18.08
2018-09-15T16:17:22.158Z,18.08
2018-09-15T16:19:50.996Z,17.95
2018-09-15T16:22:19.548Z,17.84
2018-09-15T16:24:48.008Z,17.80
2018-09-15T16:27:16.529Z,17.76
2018-09-15T16:29:45.121Z,17.68
2018-09-15T16:32:13.993Z,17.63
2018-09-15T16:37:04.136Z,17.55
2018-09-15T16:39:32.673Z,17.53
2018-09-15T16:42:01.426Z,17.40
2018-09-15T16:44:29.955Z,17.33
2018-09-15T16:46:58.483Z,17.29
2018-09-15T16:49:27.044Z,17.25
2018-09-15T16:51:55.577Z,17.25
2018-09-15T16:54:24.180Z,17.20
2018-09-15T16:56:52.733Z,17.14
2018-09-15T16:59:21.308Z,17.12
2018-09-15T17:01:49.857Z,17.11
2018-09-15T17:04:18.559Z,17.06
2018-09-15T17:06:47.197Z,17.02
2018-09-15T17:09:15.952Z,17.06
2018-09-15T17:11:44.615Z,17.06
2018-09-15T17:14:13.118Z,16.99
2018-09-15T17:17:31.465Z,16.96
2018-09-15T17:20:00.474Z,16.99
2018-09-15T17:22:30.544Z,17.09
2018-09-15T17:24:59.111Z,17.03
2018-09-15T17:27:27.726Z,16.92
2018-09-15T17:29:56.348Z,16.92
